METAR Data
IDs: Format: Raw Decoded Include TAF

Data at: 1846 UTC 21 Nov 2018

KGON 211756Z 26019G25KT 10SM OVC110 06/M02 A2993 RMK AO2 SLP135 T00561022 10056 21028 57028